Time;durP1;ratioP1;P1;durP2;ratioP2;P2;SDS_P1;SDS_P2;PMS_P1;PMS_P2;Temp;Humidity;BMP_temperature;BMP_pressure;BME280_temperature;BME280_humidity;BME280_pressure;Samples;Min_cycle;Max_cycle;Signal;HPM_P1;HPM_P2
2021/10/03 00:00:17;;;;;;;;;;;16.20;99.90;;;;;;6110177;23;20010;-83
2021/10/03 00:02:46;;;;;;;2.17;0.20;;;16.20;99.90;;;;;;6056748;23;19913;-84
2021/10/03 00:05:13;;;;;;;0.60;0.20;;;16.30;99.90;;;;;;6080629;23;20039;-84
2021/10/03 00:07:46;;;;;;;1.05;0.20;;;16.20;99.90;;;;;;6080669;23;20007;-84
2021/10/03 00:10:13;;;;;;;1.35;0.20;;;16.30;99.90;;;;;;6056606;23;20011;-83
2021/10/03 00:12:39;;;;;;;0.60;0.20;;;16.30;99.90;;;;;;6056634;23;20432;-85
2021/10/03 00:15:09;;;;;;;0.50;0.15;;;16.30;99.90;;;;;;6056490;23;20015;-84
2021/10/03 00:17:35;;;;;;;0.52;0.10;;;16.30;99.90;;;;;;6056610;23;20014;-86
2021/10/03 00:20:03;;;;;;;1.27;0.17;;;16.30;99.90;;;;;;6056634;23;20097;-85
2021/10/03 00:22:29;;;;;;;0.40;0.10;;;16.40;99.90;;;;;;6080698;23;20086;-83
2021/10/03 00:24:54;;;;;;;0.40;0.10;;;16.30;99.90;;;;;;6080678;23;20015;-84
2021/10/03 00:27:20;;;;;;;0.40;0.20;;;16.40;99.90;;;;;;6080512;23;20007;-85
2021/10/03 00:29:45;;;;;;;0.45;0.10;;;16.50;99.90;;;;;;6081813;23;20263;-85
2021/10/03 00:32:11;;;;;;;0.70;0.10;;;16.50;99.90;;;;;;6082728;23;20014;-88
2021/10/03 00:34:38;;;;;;;0.30;0.10;;;16.50;99.90;;;;;;6082571;23;20095;-86
2021/10/03 00:37:04;;;;;;;0.93;0.20;;;16.50;99.90;;;;;;6058540;23;20047;-84
2021/10/03 00:39:30;;;;;;;0.98;0.10;;;16.50;99.90;;;;;;6082737;23;20030;-83
2021/10/03 00:41:56;;;;;;;0.30;0.10;;;16.50;99.90;;;;;;6058518;23;20006;-85
2021/10/03 00:44:22;;;;;;;0.30;0.13;;;16.50;99.90;;;;;;6058399;23;20015;-83
2021/10/03 00:46:48;;;;;;;0.50;0.10;;;16.60;99.90;;;;;;6082260;23;20070;-86
2021/10/03 00:49:13;;;;;;;0.30;0.10;;;16.60;99.90;;;;;;6058469;23;20013;-85
2021/10/03 00:51:39;;;;;;;0.30;0.10;;;16.50;99.90;;;;;;6082436;23;20086;-85
2021/10/03 00:54:05;;;;;;;0.50;0.10;;;16.60;99.90;;;;;;6058280;23;20011;-84
2021/10/03 00:56:31;;;;;;;0.20;0.10;;;16.60;99.90;;;;;;6082056;23;20072;-85
2021/10/03 00:58:58;;;;;;;0.50;0.10;;;16.60;99.90;;;;;;6082694;23;20030;-85
2021/10/03 01:01:23;;;;;;;0.52;0.20;;;16.60;99.90;;;;;;6091944;23;20440;-84
2021/10/03 01:03:49;;;;;;;0.55;0.10;;;16.60;99.90;;;;;;6111347;23;20029;-85
2021/10/03 01:06:16;;;;;;;0.40;0.10;;;16.70;99.90;;;;;;6062682;23;20038;-86
2021/10/03 01:08:41;;;;;;;0.98;0.15;;;16.70;99.90;;;;;;6086935;23;20021;-85
2021/10/03 01:11:07;;;;;;;0.20;0.08;;;16.70;99.90;;;;;;6111238;23;20006;-83
2021/10/03 01:13:33;;;;;;;2.45;0.20;;;16.70;99.90;;;;;;6086423;23;20011;-83
2021/10/03 01:15:59;;;;;;;1.60;0.10;;;16.70;99.90;;;;;;6062880;23;20010;-86
2021/10/03 01:18:25;;;;;;;0.32;0.10;;;16.70;99.90;;;;;;6110934;23;20002;-84
2021/10/03 01:20:51;;;;;;;0.52;0.10;;;16.80;99.90;;;;;;6062788;23;20015;-84
2021/10/03 01:23:18;;;;;;;0.25;0.10;;;16.80;99.90;;;;;;6063145;23;20014;-83
2021/10/03 01:25:47;;;;;;;1.40;0.10;;;16.70;99.90;;;;;;6062732;23;20018;-84
2021/10/03 01:28:14;;;;;;;0.50;0.10;;;16.70;99.90;;;;;;6086516;23;20006;-84
2021/10/03 01:30:43;;;;;;;1.52;0.10;;;16.70;99.90;;;;;;6110208;23;20088;-83
2021/10/03 01:33:09;;;;;;;0.57;0.10;;;16.60;99.90;;;;;;6063920;23;20240;-82
2021/10/03 01:35:35;;;;;;;1.95;0.13;;;16.60;99.90;;;;;;6112538;23;20022;-82
2021/10/03 01:38:01;;;;;;;1.50;0.20;;;16.60;99.90;;;;;;6112291;23;20339;-84
2021/10/03 01:40:29;;;;;;;1.25;0.10;;;16.50;99.90;;;;;;6062280;23;20033;-84
2021/10/03 01:42:55;;;;;;;0.40;0.10;;;16.50;99.90;;;;;;6110198;23;20089;-81
2021/10/03 01:45:22;;;;;;;0.75;0.17;;;16.50;99.90;;;;;;6086331;23;20011;-83
2021/10/03 01:48:18;;;;;;;0.30;0.10;;;16.50;99.90;;;;;;6110678;23;20018;-85
2021/10/03 01:50:48;;;;;;;0.22;0.10;;;16.50;99.90;;;;;;6074586;23;20018;-84
2021/10/03 01:53:17;;;;;;;0.43;0.10;;;16.50;99.90;;;;;;6086554;23;20054;-83
2021/10/03 01:55:45;;;;;;;0.95;0.00;;;16.50;99.90;;;;;;6086406;23;20030;-84
2021/10/03 01:58:13;;;;;;;0.82;0.10;;;16.50;99.90;;;;;;6085987;23;20388;-84
2021/10/03 02:00:40;;;;;;;0.38;0.10;;;16.50;99.90;;;;;;6062392;23;20010;-84
2021/10/03 02:03:07;;;;;;;1.05;0.10;;;16.50;99.90;;;;;;6062377;23;20326;-83
2021/10/03 02:05:44;;;;;;;0.20;0.10;;;16.50;99.90;;;;;;6086495;23;20007;-83
2021/10/03 02:08:12;;;;;;;0.75;0.10;;;16.50;99.90;;;;;;6086299;23;20006;-82
2021/10/03 02:10:40;;;;;;;1.75;0.10;;;16.50;99.90;;;;;;6086333;23;20010;-83
2021/10/03 02:13:08;;;;;;;0.20;0.10;;;16.60;99.90;;;;;;6062547;23;20010;-84
2021/10/03 02:15:35;;;;;;;0.28;0.10;;;16.60;99.90;;;;;;6062000;23;20019;-82
2021/10/03 02:18:08;;;;;;;0.30;0.10;;;16.60;99.90;;;;;;6086153;23;20006;-84
2021/10/03 02:20:35;;;;;;;0.45;0.20;;;16.60;99.90;;;;;;6086499;23;20011;-82
2021/10/03 02:23:02;;;;;;;0.30;0.10;;;16.50;99.90;;;;;;6086279;23;20013;-83
2021/10/03 02:25:28;;;;;;;0.20;0.10;;;16.60;99.90;;;;;;6062237;23;20054;-83
2021/10/03 02:27:53;;;;;;;0.75;0.10;;;16.60;99.90;;;;;;6086302;23;20006;-83
2021/10/03 02:30:19;;;;;;;0.30;0.10;;;16.60;99.90;;;;;;6062317;23;20030;-84
2021/10/03 02:32:45;;;;;;;1.17;0.10;;;16.50;99.90;;;;;;6086075;23;20002;-85
2021/10/03 02:35:12;;;;;;;1.30;0.10;;;16.60;99.90;;;;;;6086283;23;20096;-83
2021/10/03 02:37:40;;;;;;;0.40;0.10;;;16.60;99.90;;;;;;6111420;23;20415;-84
2021/10/03 02:40:10;;;;;;;0.77;0.10;;;16.60;99.90;;;;;;6086248;23;20013;-84
2021/10/03 02:42:37;;;;;;;0.47;0.08;;;16.50;99.90;;;;;;6062090;23;20006;-83
2021/10/03 02:45:05;;;;;;;0.57;0.10;;;16.60;99.90;;;;;;6085848;23;20010;-83
2021/10/03 02:47:31;;;;;;;0.25;0.10;;;16.50;99.90;;;;;;6085778;23;20006;-84
2021/10/03 02:49:56;;;;;;;0.20;0.10;;;16.50;99.90;;;;;;6099045;23;20036;-84
2021/10/03 02:52:22;;;;;;;1.65;0.10;;;16.50;99.90;;;;;;6109649;23;20065;-83
2021/10/03 02:54:48;;;;;;;0.50;0.10;;;16.50;99.90;;;;;;6085871;23;20227;-84
2021/10/03 02:57:14;;;;;;;0.20;0.10;;;16.50;99.90;;;;;;6061837;23;20007;-83
2021/10/03 02:59:40;;;;;;;0.85;0.00;;;16.50;99.90;;;;;;6062006;23;20010;-83
2021/10/03 03:02:06;;;;;;;0.20;0.00;;;16.50;99.90;;;;;;6109581;23;20058;-84
2021/10/03 03:04:32;;;;;;;0.30;0.00;;;16.50;99.90;;;;;;6061594;23;20014;-84
2021/10/03 03:06:58;;;;;;;1.20;0.05;;;16.50;99.90;;;;;;6085295;23;20077;-85
2021/10/03 03:09:23;;;;;;;0.10;0.00;;;16.50;99.90;;;;;;6061615;23;20015;-84
2021/10/03 03:11:49;;;;;;;0.08;0.00;;;16.50;99.90;;;;;;6085812;23;20037;-84
2021/10/03 03:14:15;;;;;;;0.10;0.00;;;16.50;99.90;;;;;;6061914;23;20019;-83
2021/10/03 03:16:43;;;;;;;0.30;0.08;;;16.50;99.90;;;;;;6061517;23;20440;-84
2021/10/03 03:19:08;;;;;;;0.10;0.00;;;16.50;99.90;;;;;;6061876;23;20011;-83
2021/10/03 03:21:34;;;;;;;0.10;0.00;;;16.50;99.90;;;;;;6111002;23;20006;-83
2021/10/03 03:24:00;;;;;;;1.00;0.00;;;16.60;99.90;;;;;;6085352;23;20010;-84
2021/10/03 03:26:25;;;;;;;0.10;0.00;;;16.50;99.90;;;;;;6061712;23;20010;-85
2021/10/03 03:28:51;;;;;;;0.60;0.00;;;16.60;99.90;;;;;;6061811;23;20011;-84
2021/10/03 03:31:17;;;;;;;0.20;0.10;;;16.60;99.90;;;;;;6085385;23;20010;-84
2021/10/03 03:33:42;;;;;;;0.20;0.08;;;16.60;99.90;;;;;;6061628;23;20006;-84
2021/10/03 03:36:08;;;;;;;0.20;0.10;;;16.60;99.90;;;;;;6061576;23;20014;-84
2021/10/03 03:38:36;;;;;;;0.13;0.05;;;16.60;99.90;;;;;;6085385;23;20332;-83
2021/10/03 03:41:05;;;;;;;1.73;0.10;;;16.60;99.90;;;;;;6085901;23;20007;-82
2021/10/03 03:43:30;;;;;;;0.35;0.00;;;16.60;99.90;;;;;;6085350;23;20102;-83
2021/10/03 03:45:56;;;;;;;0.55;0.10;;;16.60;99.90;;;;;;6061302;23;20011;-84
2021/10/03 03:48:22;;;;;;;0.30;0.10;;;16.60;99.90;;;;;;6085283;23;20006;-83
2021/10/03 03:50:47;;;;;;;0.30;0.10;;;16.60;99.90;;;;;;6061423;23;20097;-84
2021/10/03 03:53:13;;;;;;;0.40;0.08;;;16.60;99.90;;;;;;6061731;23;20011;-83
2021/10/03 03:55:39;;;;;;;0.30;0.10;;;16.60;99.90;;;;;;6085037;23;20019;-84
2021/10/03 03:58:04;;;;;;;0.25;0.10;;;16.60;99.90;;;;;;6085521;23;20013;-83
2021/10/03 04:00:30;;;;;;;0.75;0.10;;;16.60;99.90;;;;;;6061672;23;20077;-83
2021/10/03 04:02:56;;;;;;;0.40;0.10;;;16.60;99.90;;;;;;6085207;23;20014;-84
2021/10/03 04:05:21;;;;;;;0.57;0.10;;;16.60;99.90;;;;;;6060807;23;20065;-84
2021/10/03 04:07:47;;;;;;;0.52;0.17;;;16.60;99.90;;;;;;6061798;23;20070;-82
2021/10/03 04:10:13;;;;;;;0.40;0.10;;;16.60;99.90;;;;;;6085210;23;20017;-83
2021/10/03 04:12:38;;;;;;;0.60;0.10;;;16.50;99.90;;;;;;6061444;23;20017;-85
2021/10/03 04:15:06;;;;;;;0.65;0.20;;;16.60;99.90;;;;;;6109255;23;20014;-84
2021/10/03 04:17:31;;;;;;;0.95;0.20;;;16.50;99.90;;;;;;6085054;23;20070;-85
2021/10/03 04:19:57;;;;;;;0.50;0.20;;;16.50;99.90;;;;;;6061701;23;20013;-83
2021/10/03 04:22:23;;;;;;;0.70;0.20;;;16.50;99.90;;;;;;6109559;23;20007;-83
2021/10/03 04:24:49;;;;;;;0.73;0.30;;;16.50;99.90;;;;;;6061555;23;20010;-86
2021/10/03 04:27:15;;;;;;;0.73;0.30;;;16.50;99.90;;;;;;6061317;23;20013;-84
2021/10/03 04:29:42;;;;;;;0.60;0.30;;;16.50;99.90;;;;;;6109225;23;20014;-84
2021/10/03 04:32:08;;;;;;;1.35;0.30;;;16.50;99.90;;;;;;6109285;23;20034;-83
2021/10/03 04:34:34;;;;;;;1.08;0.50;;;16.50;99.90;;;;;;6061525;23;20047;-84
2021/10/03 04:36:59;;;;;;;1.13;0.30;;;16.50;99.90;;;;;;6061179;23;20006;-85
2021/10/03 04:39:26;;;;;;;1.00;0.30;;;16.50;99.90;;;;;;6061351;23;20058;-83
2021/10/03 04:41:52;;;;;;;3.03;0.40;;;16.40;99.90;;;;;;6085293;23;20011;-84
2021/10/03 04:44:18;;;;;;;0.93;0.30;;;16.40;99.90;;;;;;6110899;23;20053;-83
2021/10/03 04:46:44;;;;;;;0.80;0.30;;;16.40;99.90;;;;;;6072716;23;20003;-84
2021/10/03 04:49:09;;;;;;;1.27;0.47;;;16.40;99.90;;;;;;6110837;23;20066;-86
2021/10/03 04:51:35;;;;;;;3.10;0.50;;;16.40;99.90;;;;;;6058158;23;20007;-84
2021/10/03 04:54:00;;;;;;;0.90;0.40;;;16.40;99.90;;;;;;6085078;23;20015;-83
2021/10/03 04:56:28;;;;;;;1.20;0.50;;;16.30;99.90;;;;;;6109024;23;20026;-84
2021/10/03 04:58:54;;;;;;;2.15;0.50;;;16.40;99.90;;;;;;6109607;23;20037;-85
2021/10/03 05:01:20;;;;;;;1.70;0.50;;;16.30;99.90;;;;;;6109113;23;20018;-84
2021/10/03 05:03:45;;;;;;;1.55;0.50;;;16.30;99.90;;;;;;6109178;23;20137;-84
2021/10/03 05:06:11;;;;;;;1.30;0.50;;;16.30;99.90;;;;;;6085221;23;20015;-84
2021/10/03 05:08:37;;;;;;;1.73;0.50;;;16.20;99.90;;;;;;6109258;23;20002;-82
2021/10/03 05:11:04;;;;;;;1.42;0.50;;;16.20;99.90;;;;;;6061467;23;20010;-85
2021/10/03 05:13:30;;;;;;;1.63;0.43;;;16.20;99.90;;;;;;6061563;23;20010;-85
2021/10/03 05:15:57;;;;;;;1.80;0.50;;;16.20;99.90;;;;;;6061293;23;20169;-86
2021/10/03 05:18:23;;;;;;;2.67;0.52;;;16.20;99.90;;;;;;6063054;23;20002;-85
2021/10/03 05:20:49;;;;;;;0.82;0.35;;;16.10;99.90;;;;;;6086970;23;20062;-84
2021/10/03 05:23:15;;;;;;;1.10;0.50;;;16.10;99.90;;;;;;6062985;23;20018;-86
2021/10/03 05:25:40;;;;;;;1.95;0.60;;;16.10;99.90;;;;;;6062035;23;20030;-85
2021/10/03 05:28:06;;;;;;;1.92;0.60;;;16.10;99.90;;;;;;6061476;23;20006;-84
2021/10/03 05:30:32;;;;;;;1.90;0.50;;;16.10;99.90;;;;;;6062760;23;20041;-85
2021/10/03 05:32:58;;;;;;;2.45;0.70;;;16.00;99.90;;;;;;6110656;23;20431;-85
2021/10/03 05:35:23;;;;;;;2.75;0.60;;;16.10;99.90;;;;;;6086300;23;20014;-83
2021/10/03 05:37:49;;;;;;;2.65;0.60;;;16.00;99.90;;;;;;6062788;23;20092;-85
2021/10/03 05:40:16;;;;;;;1.80;0.70;;;16.00;99.90;;;;;;6086647;23;20007;-84
2021/10/03 05:42:44;;;;;;;1.50;0.70;;;16.00;99.90;;;;;;6062303;23;20030;-87
2021/10/03 05:45:20;;;;;;;1.52;0.73;;;16.00;99.90;;;;;;6110601;23;20014;-86
2021/10/03 05:47:46;;;;;;;2.25;0.70;;;16.00;99.90;;;;;;6086481;23;20436;-87
2021/10/03 05:50:11;;;;;;;1.50;0.60;;;15.90;99.90;;;;;;6110779;23;20081;-88
2021/10/03 05:52:38;;;;;;;1.92;0.60;;;15.90;99.90;;;;;;6086830;23;20069;-86
2021/10/03 05:55:04;;;;;;;1.40;0.70;;;16.00;99.90;;;;;;6086024;23;20045;-85
2021/10/03 05:57:29;;;;;;;2.95;0.73;;;15.90;99.90;;;;;;6110097;23;20440;-86
2021/10/03 05:59:55;;;;;;;2.28;0.60;;;15.90;99.90;;;;;;6062951;23;20010;-88
2021/10/03 06:02:21;;;;;;;1.55;0.60;;;15.90;99.90;;;;;;6086101;23;20087;-87
2021/10/03 06:04:46;;;;;;;1.80;0.60;;;15.90;99.90;;;;;;6062695;23;20013;-89
2021/10/03 06:07:13;;;;;;;3.15;0.70;;;15.90;99.90;;;;;;6086419;23;20006;-87
2021/10/03 06:09:38;;;;;;;1.70;0.90;;;15.90;99.90;;;;;;6112249;23;20032;-89
2021/10/03 06:12:05;;;;;;;1.63;0.80;;;15.90;99.90;;;;;;6062107;23;20440;-86
2021/10/03 06:14:31;;;;;;;2.75;0.80;;;15.90;99.90;;;;;;6086765;23;20037;-89
2021/10/03 06:16:57;;;;;;;4.22;0.80;;;15.90;99.90;;;;;;6063832;23;20444;-89
2021/10/03 06:19:22;;;;;;;2.33;0.88;;;15.90;99.90;;;;;;6063841;23;20042;-91
2021/10/03 06:21:48;;;;;;;2.08;0.90;;;15.90;99.90;;;;;;6110905;23;20013;-91
2021/10/03 06:24:17;;;;;;;2.45;0.70;;;15.90;99.90;;;;;;6086330;23;20010;-87
2021/10/03 06:26:47;;;;;;;2.45;0.73;;;15.90;99.90;;;;;;6086063;23;20064;-93
2021/10/03 06:29:14;;;;;;;1.65;0.70;;;15.80;99.90;;;;;;6086494;23;20014;-88
2021/10/03 06:31:39;;;;;;;2.13;0.70;;;15.90;99.90;;;;;;6062266;23;20034;-87
2021/10/03 06:34:05;;;;;;;2.15;0.77;;;15.80;99.90;;;;;;6062618;23;20010;-88
2021/10/03 06:36:31;;;;;;;3.50;0.75;;;15.80;99.90;;;;;;6085761;23;20046;-91
2021/10/03 06:38:56;;;;;;;1.70;0.90;;;15.80;99.90;;;;;;6062751;23;20002;-87
2021/10/03 06:41:22;;;;;;;2.15;0.80;;;15.80;99.90;;;;;;6109931;23;20014;-90
2021/10/03 06:43:48;;;;;;;3.38;0.77;;;15.80;99.90;;;;;;6085931;23;20011;-88
2021/10/03 06:46:14;;;;;;;3.22;0.82;;;15.80;99.90;;;;;;6062121;23;20089;-87
2021/10/03 06:48:40;;;;;;;2.33;0.73;;;15.80;99.90;;;;;;6062203;23;20013;-89
2021/10/03 06:51:05;;;;;;;1.85;0.90;;;15.80;99.90;;;;;;6062077;23;20006;-91
2021/10/03 06:53:32;;;;;;;1.90;0.80;;;15.80;99.90;;;;;;6062248;23;20006;-90
2021/10/03 06:55:58;;;;;;;3.75;1.35;;;15.80;99.90;;;;;;6109322;23;20028;-86
2021/10/03 06:58:24;;;;;;;3.65;0.98;;;15.80;99.90;;;;;;6086056;23;20002;-90
2021/10/03 07:00:49;;;;;;;2.67;1.08;;;15.70;99.90;;;;;;6062053;23;20017;-88
2021/10/03 07:03:15;;;;;;;2.38;0.73;;;15.80;99.90;;;;;;6061928;23;20022;-88
2021/10/03 07:05:40;;;;;;;2.30;0.75;;;15.80;99.90;;;;;;6061738;23;20006;-86
2021/10/03 07:08:06;;;;;;;2.38;0.88;;;15.80;99.90;;;;;;6061799;23;20002;-89
2021/10/03 07:10:32;;;;;;;3.75;1.00;;;15.70;99.90;;;;;;6085409;23;20478;-87
2021/10/03 07:12:58;;;;;;;2.90;1.00;;;15.70;99.90;;;;;;6109338;23;20013;-87
2021/10/03 07:15:23;;;;;;;3.80;1.00;;;15.80;99.90;;;;;;6061563;23;20045;-91
2021/10/03 07:17:49;;;;;;;3.83;0.98;;;15.70;99.90;;;;;;6109277;23;20013;-89
2021/10/03 07:20:15;;;;;;;2.38;1.13;;;15.70;99.90;;;;;;6061614;23;20007;-89
2021/10/03 07:22:41;;;;;;;2.38;0.90;;;15.70;99.90;;;;;;6109178;23;20011;-87
2021/10/03 07:25:08;;;;;;;2.08;0.90;;;15.70;99.90;;;;;;6085357;23;20006;-88
2021/10/03 07:27:33;;;;;;;2.55;0.95;;;15.70;99.90;;;;;;6085055;23;20021;-90
2021/10/03 07:29:59;;;;;;;4.18;1.30;;;15.70;99.90;;;;;;6061474;23;20006;-90
2021/10/03 07:32:24;;;;;;;2.72;1.25;;;15.70;99.90;;;;;;6085489;23;20006;-91
2021/10/03 07:34:50;;;;;;;2.08;0.88;;;15.70;99.90;;;;;;6061830;23;20014;-89
2021/10/03 07:37:16;;;;;;;2.45;1.00;;;15.70;99.90;;;;;;6061619;23;20057;-86
2021/10/03 07:39:41;;;;;;;2.20;1.10;;;15.70;99.90;;;;;;6084878;23;20479;-88
2021/10/03 07:42:07;;;;;;;2.42;0.90;;;15.70;99.90;;;;;;6061114;23;20002;-87
2021/10/03 07:44:53;;;;;;;3.47;1.00;;;15.70;99.90;;;;;;6108090;23;20050;-86
2021/10/03 07:47:18;;;;;;;1.88;0.80;;;15.70;99.90;;;;;;6026027;23;20063;-87
2021/10/03 07:49:44;;;;;;;3.53;1.83;;;15.70;99.90;;;;;;6050337;23;20036;-89
2021/10/03 07:52:09;;;;;;;2.50;1.27;;;15.70;99.90;;;;;;6050231;23;20007;-88
2021/10/03 07:54:35;;;;;;;3.08;1.40;;;15.70;99.90;;;;;;6050012;23;20023;-90
2021/10/03 07:57:01;;;;;;;3.40;1.40;;;15.70;99.90;;;;;;6026222;23;20018;-89
2021/10/03 07:59:26;;;;;;;2.13;1.02;;;15.70;99.90;;;;;;6026873;23;20011;-88
2021/10/03 08:01:52;;;;;;;4.25;2.28;;;15.70;99.90;;;;;;6026718;23;20022;-90
2021/10/03 08:04:17;;;;;;;2.92;1.50;;;15.70;99.90;;;;;;6051918;23;20023;-90
2021/10/03 08:06:43;;;;;;;3.63;1.50;;;15.70;99.90;;;;;;6026073;23;20035;-88
2021/10/03 08:09:09;;;;;;;3.05;1.52;;;15.70;99.90;;;;;;6050187;23;20010;-91
2021/10/03 08:11:34;;;;;;;3.05;1.55;;;15.70;99.90;;;;;;6026343;23;20011;-87
2021/10/03 08:14:00;;;;;;;5.15;2.17;;;15.70;99.90;;;;;;6026219;23;20255;-89
2021/10/03 08:16:26;;;;;;;3.22;2.03;;;15.70;99.90;;;;;;6049863;23;20011;-91
2021/10/03 08:18:51;;;;;;;2.10;1.33;;;15.80;99.90;;;;;;6049939;23;20031;-89
2021/10/03 08:21:18;;;;;;;3.65;1.90;;;15.80;99.90;;;;;;6026352;23;20015;-90
2021/10/03 08:23:43;;;;;;;3.45;1.63;;;15.80;99.90;;;;;;6057322;23;20011;-90
2021/10/03 08:26:09;;;;;;;2.67;1.67;;;15.80;99.90;;;;;;6056455;23;20043;-89
2021/10/03 08:28:35;;;;;;;2.28;1.35;;;15.80;99.90;;;;;;6055981;23;20058;-90
2021/10/03 08:31:01;;;;;;;5.13;1.73;;;15.80;99.90;;;;;;6056222;23;20017;-89
2021/10/03 08:33:26;;;;;;;3.13;1.40;;;15.80;99.90;;;;;;6056335;23;20011;-90
2021/10/03 08:35:53;;;;;;;4.72;2.17;;;15.80;99.90;;;;;;6056386;23;20070;-89
2021/10/03 08:38:18;;;;;;;3.25;1.65;;;15.80;99.90;;;;;;6056672;23;20013;-90
2021/10/03 08:40:44;;;;;;;3.75;1.85;;;15.80;99.90;;;;;;6056662;23;20015;-91
2021/10/03 08:43:10;;;;;;;3.40;1.58;;;15.80;99.90;;;;;;6032407;23;20417;-86
2021/10/03 08:45:42;;;;;;;3.45;1.83;;;15.80;99.90;;;;;;6055917;23;20022;-92
2021/10/03 08:48:12;;;;;;;3.33;1.17;;;15.80;99.90;;;;;;6056323;23;20007;-89
2021/10/03 08:50:38;;;;;;;6.88;2.28;;;15.80;99.90;;;;;;6033218;23;20007;-87
2021/10/03 08:53:04;;;;;;;7.05;4.78;;;15.80;99.90;;;;;;6034898;23;20014;-92
2021/10/03 08:55:30;;;;;;;5.05;3.45;;;15.70;99.90;;;;;;6058440;23;20429;-93
2021/10/03 08:57:56;;;;;;;9.45;5.03;;;15.30;99.90;;;;;;6058039;23;20013;-91
2021/10/03 09:00:23;;;;;;;9.98;5.18;;;15.10;99.90;;;;;;6058264;23;20022;-90
2021/10/03 09:03:02;;;;;;;5.25;2.60;;;14.90;99.90;;;;;;6061156;23;20038;-90
2021/10/03 09:05:35;;;;;;;17.23;8.30;;;14.70;99.90;;;;;;6087090;23;20010;-89
2021/10/03 09:08:11;;;;;;;8.43;3.58;;;14.60;99.90;;;;;;6112558;23;20254;-90
2021/10/03 09:10:50;;;;;;;13.40;6.93;;;14.60;99.90;;;;;;6110549;23;20080;-89
2021/10/03 09:13:18;;;;;;;7.88;3.75;;;14.30;99.90;;;;;;6086651;23;20104;-92
2021/10/03 09:15:45;;;;;;;6.85;3.55;;;14.20;99.90;;;;;;6110197;23;20018;-88
2021/10/03 09:18:11;;;;;;;2.90;1.50;;;14.10;99.90;;;;;;6086735;23;20013;-90
2021/10/03 09:20:37;;;;;;;1.52;0.63;;;14.00;99.90;;;;;;6086424;23;20062;-94
2021/10/03 09:23:08;;;;;;;1.00;0.40;;;14.00;99.90;;;;;;6086705;23;20033;-91
2021/10/03 09:25:51;;;;;;;0.75;0.20;;;14.00;99.90;;;;;;6086389;23;20014;-92
2021/10/03 09:28:29;;;;;;;0.50;0.10;;;14.00;99.90;;;;;;6110756;23;20033;-92
2021/10/03 09:30:58;;;;;;;0.60;0.10;;;13.90;99.90;;;;;;6086668;23;20014;-91
2021/10/03 09:33:24;;;;;;;0.55;0.10;;;13.90;99.90;;;;;;6086584;23;20123;-92
2021/10/03 09:35:57;;;;;;;0.25;0.10;;;14.00;99.90;;;;;;6110338;23;20085;-92
2021/10/03 09:38:23;;;;;;;0.35;0.10;;;14.00;99.90;;;;;;6086613;23;20014;-90
2021/10/03 09:41:00;;;;;;;0.85;0.00;;;13.80;99.90;;;;;;6086247;23;20017;-94
2021/10/03 09:43:47;;;;;;;0.55;0.10;;;13.70;99.90;;;;;;6086531;23;20013;-92
2021/10/03 09:46:37;;;;;;;0.32;0.10;;;13.60;99.90;;;;;;6062251;23;20006;-92
2021/10/03 09:49:06;;;;;;;0.60;0.00;;;13.70;99.90;;;;;;6062431;23;20038;-92
2021/10/03 09:51:33;;;;;;;0.25;0.10;;;13.70;99.90;;;;;;6085924;23;20030;-91
2021/10/03 09:53:59;;;;;;;1.25;0.40;;;13.70;99.90;;;;;;6110254;23;20061;-89
2021/10/03 09:56:26;;;;;;;2.10;0.40;;;13.60;99.90;;;;;;6110215;23;20009;-91
2021/10/03 09:58:54;;;;;;;1.33;0.10;;;13.60;99.90;;;;;;6110493;23;20042;-92
2021/10/03 10:01:22;;;;;;;0.32;0.10;;;13.50;99.90;;;;;;6080803;23;20077;-90
2021/10/03 10:03:48;;;;;;;0.30;0.10;;;13.50;99.90;;;;;;6057116;23;20070;-91
2021/10/03 10:06:16;;;;;;;0.22;0.08;;;13.40;99.90;;;;;;6081100;23;20007;-92
2021/10/03 10:08:42;;;;;;;0.30;0.10;;;13.40;99.90;;;;;;6057381;23;20014;-91
2021/10/03 10:11:26;;;;;;;0.80;0.30;;;13.50;99.90;;;;;;6081052;23;20063;-91
2021/10/03 10:13:56;;;;;;;0.40;0.10;;;13.40;99.90;;;;;;6057425;23;20436;-93
2021/10/03 10:16:26;;;;;;;;;;;13.50;99.90;;;;;;6057554;23;20010;-91
2021/10/03 10:18:51;;;;;;;0.40;0.10;;;13.50;99.90;;;;;;6057301;23;20248;-91
2021/10/03 10:21:22;;;;;;;0.47;0.10;;;13.40;99.90;;;;;;6057278;23;20014;-91
2021/10/03 10:23:48;;;;;;;0.20;0.00;;;13.50;99.90;;;;;;6057479;23;20015;-92
2021/10/03 10:26:38;;;;;;;0.17;0.00;;;13.50;99.90;;;;;;6033442;23;20019;-89
2021/10/03 10:29:42;;;;;;;0.40;0.20;;;13.50;99.90;;;;;;6057343;23;20014;-91
2021/10/03 10:32:09;;;;;;;0.20;0.10;;;13.50;99.90;;;;;;6080772;23;20053;-90
2021/10/03 10:35:18;;;;;;;0.60;0.10;;;13.50;99.90;;;;;;6056967;23;20070;-91
2021/10/03 10:37:54;;;;;;;0.88;0.10;;;13.70;99.90;;;;;;6049337;23;20437;-91
2021/10/03 10:40:23;;;;;;;0.57;0.10;;;13.70;99.90;;;;;;6057232;23;20007;-93
2021/10/03 10:43:03;;;;;;;0.20;0.10;;;13.80;99.90;;;;;;6081084;23;20336;-87
2021/10/03 10:45:33;;;;;;;0.20;0.10;;;13.90;99.90;;;;;;6080811;23;20055;-91
2021/10/03 10:48:08;;;;;;;0.28;0.00;;;14.00;99.90;;;;;;6082373;23;20007;-88
2021/10/03 10:50:39;;;;;;;0.20;0.00;;;14.00;99.90;;;;;;6057533;23;20345;-89
2021/10/03 10:53:25;;;;;;;0.20;0.00;;;14.00;99.90;;;;;;6057286;23;20013;-87
2021/10/03 10:56:17;;;;;;;0.08;0.00;;;14.00;99.90;;;;;;6057070;23;20011;-95
2021/10/03 10:58:52;;;;;;;0.10;0.00;;;14.00;99.90;;;;;;6057160;23;20054;-87
2021/10/03 11:01:35;;;;;;;0.28;0.08;;;14.10;99.90;;;;;;6080968;23;20015;-90
2021/10/03 11:04:05;;;;;;;0.20;0.08;;;14.10;99.90;;;;;;6070688;23;20011;-90
2021/10/03 11:06:31;;;;;;;0.00;0.00;;;14.10;99.90;;;;;;6085361;23;20058;-84
2021/10/03 11:08:59;;;;;;;0.10;0.00;;;14.20;99.90;;;;;;6085566;23;20011;-86
2021/10/03 11:11:26;;;;;;;0.82;0.05;;;14.20;99.90;;;;;;6085377;23;20095;-87
2021/10/03 11:13:58;;;;;;;0.85;0.00;;;14.10;99.90;;;;;;6085753;23;20051;-90
2021/10/03 11:16:30;;;;;;;0.17;0.10;;;14.10;99.90;;;;;;6109612;23;20010;-87
2021/10/03 11:18:57;;;;;;;1.15;0.10;;;14.20;99.90;;;;;;6062543;23;20037;-87
2021/10/03 11:21:30;;;;;;;0.68;0.10;;;14.30;99.90;;;;;;6087221;23;20464;-91
2021/10/03 11:24:07;;;;;;;0.88;0.10;;;14.20;99.90;;;;;;6089213;23;20022;-90
2021/10/03 11:26:56;;;;;;;0.30;0.10;;;14.30;99.90;;;;;;6113674;23;20010;-91
2021/10/03 11:29:24;;;;;;;0.35;0.10;;;14.30;99.90;;;;;;6090314;23;20006;-91
2021/10/03 11:31:58;;;;;;;0.35;0.20;;;14.40;99.90;;;;;;6066666;23;20006;-90
2021/10/03 11:34:33;;;;;;;0.20;0.10;;;14.40;99.90;;;;;;6090463;23;20006;-91
2021/10/03 11:37:03;;;;;;;0.35;0.20;;;14.40;99.90;;;;;;6091217;23;20472;-88
2021/10/03 11:39:51;;;;;;;0.52;0.20;;;14.50;99.90;;;;;;6091228;23;20033;-90
2021/10/03 11:42:38;;;;;;;0.20;0.10;;;14.50;99.90;;;;;;6091766;23;20042;-90
2021/10/03 11:48:06;;;;;;;0.55;0.20;;;14.40;99.90;;;;;;6140258;23;20045;-89
2021/10/03 11:50:40;;;;;;;1.00;0.40;;;14.50;99.90;;;;;;6115017;23;20032;-90
2021/10/03 11:53:18;;;;;;;1.60;0.40;;;14.40;99.90;;;;;;6138980;23;20380;-89
2021/10/03 11:55:46;;;;;;;0.80;0.30;;;14.30;99.90;;;;;;6139206;23;20021;-89
2021/10/03 11:58:16;;;;;;;1.00;0.47;;;14.30;99.90;;;;;;6138601;23;20037;-89
2021/10/03 12:01:05;;;;;;;0.90;0.30;;;14.40;99.90;;;;;;6114737;23;20018;-89
2021/10/03 12:03:32;;;;;;;0.93;0.30;;;14.50;99.90;;;;;;6114157;23;20017;-90
2021/10/03 12:06:19;;;;;;;0.82;0.30;;;14.40;99.90;;;;;;6114225;23;20010;-89
2021/10/03 12:08:46;;;;;;;1.15;0.30;;;14.20;99.90;;;;;;6114314;23;20010;-90
2021/10/03 12:11:12;;;;;;;0.47;0.20;;;14.20;99.90;;;;;;6114498;23;20006;-88
2021/10/03 12:13:38;;;;;;;0.65;0.30;;;14.30;99.90;;;;;;6114187;23;20029;-89
2021/10/03 12:16:07;;;;;;;0.50;0.28;;;14.30;99.90;;;;;;6114513;23;20506;-89
2021/10/03 12:18:48;;;;;;;0.60;0.30;;;14.50;99.90;;;;;;6138326;23;20021;-88
2021/10/03 12:21:15;;;;;;;0.70;0.30;;;14.70;99.90;;;;;;6114276;23;20021;-90
2021/10/03 12:24:00;;;;;;;0.60;0.30;;;14.80;99.90;;;;;;6138830;23;20013;-89
2021/10/03 12:26:26;;;;;;;0.65;0.30;;;14.80;99.90;;;;;;6141334;23;20014;-89
2021/10/03 12:28:58;;;;;;;0.60;0.30;;;14.80;99.90;;;;;;6141520;23;20006;-88
2021/10/03 12:31:47;;;;;;;1.00;0.38;;;14.90;99.90;;;;;;6117504;23;20084;-89
2021/10/03 12:34:15;;;;;;;1.05;0.30;;;14.90;99.90;;;;;;6141725;23;20021;-89
2021/10/03 12:36:57;;;;;;;0.60;0.30;;;14.90;99.90;;;;;;6141872;23;20006;-90
2021/10/03 12:39:27;;;;;;;0.60;0.30;;;15.00;99.90;;;;;;6117082;23;20209;-89
2021/10/03 12:42:02;;;;;;;0.63;0.30;;;14.80;99.90;;;;;;6117268;23;20043;-89
2021/10/03 12:47:16;;;;;;;1.85;0.30;;;15.00;99.90;;;;;;6115668;23;20090;-91
2021/10/03 12:49:43;;;;;;;1.15;0.30;;;15.10;99.90;;;;;;6115898;23;20014;-90
2021/10/03 12:52:10;;;;;;;0.70;0.40;;;15.10;99.90;;;;;;6091967;23;20037;-90
2021/10/03 12:54:36;;;;;;;0.90;0.50;;;15.10;99.90;;;;;;6115839;23;20435;-90
2021/10/03 12:57:03;;;;;;;0.70;0.30;;;15.00;99.90;;;;;;6116080;23;20447;-92
2021/10/03 12:59:29;;;;;;;1.02;0.30;;;15.00;99.90;;;;;;6140399;23;20075;-90